sensor_id;sensor_type;location;lat;lon;timestamp;P1;durP1;ratioP1;P2;durP2;ratioP2
13493;SDS011;6819;50.886;4.332;2023-08-06T00:01:58;5.43;;;2.83;;
13493;SDS011;6819;50.886;4.332;2023-08-06T00:04:24;9.20;;;2.92;;
13493;SDS011;6819;50.886;4.332;2023-08-06T00:06:50;6.35;;;2.78;;
13493;SDS011;6819;50.886;4.332;2023-08-06T00:09:16;8.07;;;2.75;;
13493;SDS011;6819;50.886;4.332;2023-08-06T00:11:42;6.32;;;2.60;;
13493;SDS011;6819;50.886;4.332;2023-08-06T00:14:09;4.90;;;2.55;;
13493;SDS011;6819;50.886;4.332;2023-08-06T00:16:35;7.40;;;3.05;;
13493;SDS011;6819;50.886;4.332;2023-08-06T00:19:01;7.32;;;2.90;;
13493;SDS011;6819;50.886;4.332;2023-08-06T00:21:27;4.32;;;2.70;;
13493;SDS011;6819;50.886;4.332;2023-08-06T00:23:53;5.85;;;2.80;;
13493;SDS011;6819;50.886;4.332;2023-08-06T00:26:19;8.20;;;3.35;;
13493;SDS011;6819;50.886;4.332;2023-08-06T00:28:46;8.18;;;3.90;;
13493;SDS011;6819;50.886;4.332;2023-08-06T00:31:12;6.43;;;3.13;;
13493;SDS011;6819;50.886;4.332;2023-08-06T00:33:38;6.85;;;4.13;;
13493;SDS011;6819;50.886;4.332;2023-08-06T00:36:04;8.77;;;3.70;;
13493;SDS011;6819;50.886;4.332;2023-08-06T00:38:30;10.07;;;3.85;;
13493;SDS011;6819;50.886;4.332;2023-08-06T00:40:56;6.03;;;3.65;;
13493;SDS011;6819;50.886;4.332;2023-08-06T00:43:22;11.52;;;4.35;;
13493;SDS011;6819;50.886;4.332;2023-08-06T00:45:48;9.05;;;4.78;;
13493;SDS011;6819;50.886;4.332;2023-08-06T00:48:14;6.93;;;4.20;;
13493;SDS011;6819;50.886;4.332;2023-08-06T00:50:41;9.45;;;4.45;;
13493;SDS011;6819;50.886;4.332;2023-08-06T00:53:07;16.50;;;4.75;;
13493;SDS011;6819;50.886;4.332;2023-08-06T00:55:33;9.15;;;4.22;;
13493;SDS011;6819;50.886;4.332;2023-08-06T00:57:59;10.77;;;4.47;;
13493;SDS011;6819;50.886;4.332;2023-08-06T01:00:25;8.65;;;3.88;;
13493;SDS011;6819;50.886;4.332;2023-08-06T01:02:51;10.38;;;5.32;;
13493;SDS011;6819;50.886;4.332;2023-08-06T01:05:19;9.88;;;5.10;;
13493;SDS011;6819;50.886;4.332;2023-08-06T01:13:16;9.75;;;4.97;;
13493;SDS011;6819;50.886;4.332;2023-08-06T01:15:49;8.93;;;5.78;;
13493;SDS011;6819;50.886;4.332;2023-08-06T01:18:15;12.77;;;5.50;;
13493;SDS011;6819;50.886;4.332;2023-08-06T01:20:42;11.32;;;5.70;;
13493;SDS011;6819;50.886;4.332;2023-08-06T01:23:08;13.77;;;5.38;;
13493;SDS011;6819;50.886;4.332;2023-08-06T01:25:35;13.02;;;5.60;;
13493;SDS011;6819;50.886;4.332;2023-08-06T01:28:05;11.38;;;5.93;;
13493;SDS011;6819;50.886;4.332;2023-08-06T01:30:33;13.55;;;5.75;;
13493;SDS011;6819;50.886;4.332;2023-08-06T01:33:02;11.10;;;5.70;;
13493;SDS011;6819;50.886;4.332;2023-08-06T01:35:30;14.13;;;6.28;;
13493;SDS011;6819;50.886;4.332;2023-08-06T01:37:56;18.33;;;6.45;;
13493;SDS011;6819;50.886;4.332;2023-08-06T01:40:22;9.63;;;5.20;;
13493;SDS011;6819;50.886;4.332;2023-08-06T01:42:48;11.52;;;5.85;;
13493;SDS011;6819;50.886;4.332;2023-08-06T01:45:14;16.42;;;6.53;;
13493;SDS011;6819;50.886;4.332;2023-08-06T01:47:40;13.95;;;6.30;;
13493;SDS011;6819;50.886;4.332;2023-08-06T01:50:06;10.45;;;5.13;;
13493;SDS011;6819;50.886;4.332;2023-08-06T01:52:32;11.98;;;6.38;;
13493;SDS011;6819;50.886;4.332;2023-08-06T01:54:58;10.23;;;4.63;;
13493;SDS011;6819;50.886;4.332;2023-08-06T01:57:24;11.65;;;4.90;;
13493;SDS011;6819;50.886;4.332;2023-08-06T01:59:50;11.60;;;4.70;;
13493;SDS011;6819;50.886;4.332;2023-08-06T02:02:16;8.45;;;4.40;;
13493;SDS011;6819;50.886;4.332;2023-08-06T02:04:42;10.30;;;5.03;;
13493;SDS011;6819;50.886;4.332;2023-08-06T02:07:08;7.68;;;4.40;;
13493;SDS011;6819;50.886;4.332;2023-08-06T02:09:34;8.25;;;4.32;;
13493;SDS011;6819;50.886;4.332;2023-08-06T02:12:00;7.65;;;3.80;;
13493;SDS011;6819;50.886;4.332;2023-08-06T02:14:27;8.68;;;4.07;;
13493;SDS011;6819;50.886;4.332;2023-08-06T02:16:53;8.63;;;3.92;;
13493;SDS011;6819;50.886;4.332;2023-08-06T02:19:19;8.20;;;3.20;;
13493;SDS011;6819;50.886;4.332;2023-08-06T02:21:45;11.05;;;4.18;;
13493;SDS011;6819;50.886;4.332;2023-08-06T02:24:11;7.30;;;4.22;;
13493;SDS011;6819;50.886;4.332;2023-08-06T02:26:37;18.23;;;4.13;;
13493;SDS011;6819;50.886;4.332;2023-08-06T02:29:03;7.30;;;3.42;;
13493;SDS011;6819;50.886;4.332;2023-08-06T02:31:29;8.77;;;2.95;;
13493;SDS011;6819;50.886;4.332;2023-08-06T02:33:55;7.70;;;2.85;;
13493;SDS011;6819;50.886;4.332;2023-08-06T02:36:22;9.23;;;2.90;;
13493;SDS011;6819;50.886;4.332;2023-08-06T02:38:48;7.57;;;2.65;;
13493;SDS011;6819;50.886;4.332;2023-08-06T02:41:14;4.13;;;2.97;;
13493;SDS011;6819;50.886;4.332;2023-08-06T02:43:40;17.55;;;2.58;;
13493;SDS011;6819;50.886;4.332;2023-08-06T02:46:06;9.43;;;3.10;;
13493;SDS011;6819;50.886;4.332;2023-08-06T02:48:32;7.15;;;3.35;;
13493;SDS011;6819;50.886;4.332;2023-08-06T02:50:58;9.80;;;3.55;;
13493;SDS011;6819;50.886;4.332;2023-08-06T02:53:25;9.50;;;3.38;;
13493;SDS011;6819;50.886;4.332;2023-08-06T02:55:51;11.40;;;4.03;;
13493;SDS011;6819;50.886;4.332;2023-08-06T02:58:17;10.75;;;4.07;;
13493;SDS011;6819;50.886;4.332;2023-08-06T03:00:47;9.40;;;3.75;;
13493;SDS011;6819;50.886;4.332;2023-08-06T03:03:24;6.88;;;3.72;;
13493;SDS011;6819;50.886;4.332;2023-08-06T03:05:53;13.77;;;4.20;;
13493;SDS011;6819;50.886;4.332;2023-08-06T03:08:19;11.20;;;6.00;;
13493;SDS011;6819;50.886;4.332;2023-08-06T03:10:47;13.27;;;5.57;;
13493;SDS011;6819;50.886;4.332;2023-08-06T03:13:13;14.15;;;5.95;;
13493;SDS011;6819;50.886;4.332;2023-08-06T03:15:40;12.07;;;6.03;;
13493;SDS011;6819;50.886;4.332;2023-08-06T03:18:06;15.32;;;7.15;;
13493;SDS011;6819;50.886;4.332;2023-08-06T03:20:32;14.05;;;7.97;;
13493;SDS011;6819;50.886;4.332;2023-08-06T03:22:58;21.50;;;8.98;;
13493;SDS011;6819;50.886;4.332;2023-08-06T03:25:24;21.75;;;10.18;;
13493;SDS011;6819;50.886;4.332;2023-08-06T03:27:50;22.17;;;10.18;;
13493;SDS011;6819;50.886;4.332;2023-08-06T03:30:16;19.00;;;9.60;;
13493;SDS011;6819;50.886;4.332;2023-08-06T03:32:42;22.65;;;9.95;;
13493;SDS011;6819;50.886;4.332;2023-08-06T03:35:08;11.48;;;6.68;;
13493;SDS011;6819;50.886;4.332;2023-08-06T03:37:34;9.05;;;6.20;;
13493;SDS011;6819;50.886;4.332;2023-08-06T03:40:00;12.52;;;6.15;;
13493;SDS011;6819;50.886;4.332;2023-08-06T03:42:26;9.77;;;4.82;;
13493;SDS011;6819;50.886;4.332;2023-08-06T03:44:52;10.13;;;4.63;;
13493;SDS011;6819;50.886;4.332;2023-08-06T03:47:18;7.93;;;3.70;;
13493;SDS011;6819;50.886;4.332;2023-08-06T03:49:44;5.63;;;3.47;;
13493;SDS011;6819;50.886;4.332;2023-08-06T03:52:10;5.85;;;2.90;;
13493;SDS011;6819;50.886;4.332;2023-08-06T03:54:36;5.70;;;2.15;;
13493;SDS011;6819;50.886;4.332;2023-08-06T03:57:02;4.93;;;2.05;;
13493;SDS011;6819;50.886;4.332;2023-08-06T03:59:28;1.63;;;1.05;;
13493;SDS011;6819;50.886;4.332;2023-08-06T04:01:54;2.03;;;1.30;;
13493;SDS011;6819;50.886;4.332;2023-08-06T04:04:20;1.73;;;1.20;;
13493;SDS011;6819;50.886;4.332;2023-08-06T04:06:46;1.38;;;1.20;;
13493;SDS011;6819;50.886;4.332;2023-08-06T04:09:12;3.75;;;1.40;;
13493;SDS011;6819;50.886;4.332;2023-08-06T04:11:38;2.33;;;1.15;;
13493;SDS011;6819;50.886;4.332;2023-08-06T04:14:04;1.17;;;0.98;;
13493;SDS011;6819;50.886;4.332;2023-08-06T04:16:30;1.50;;;1.05;;
13493;SDS011;6819;50.886;4.332;2023-08-06T04:18:56;2.33;;;1.33;;
13493;SDS011;6819;50.886;4.332;2023-08-06T04:21:23;3.20;;;1.30;;
13493;SDS011;6819;50.886;4.332;2023-08-06T04:23:49;3.40;;;1.40;;
13493;SDS011;6819;50.886;4.332;2023-08-06T04:26:15;2.90;;;1.30;;
13493;SDS011;6819;50.886;4.332;2023-08-06T04:28:41;6.60;;;1.85;;
13493;SDS011;6819;50.886;4.332;2023-08-06T04:31:07;5.25;;;1.90;;
13493;SDS011;6819;50.886;4.332;2023-08-06T04:33:33;3.25;;;1.45;;
13493;SDS011;6819;50.886;4.332;2023-08-06T04:35:59;3.35;;;2.05;;
13493;SDS011;6819;50.886;4.332;2023-08-06T04:38:25;6.38;;;2.50;;
13493;SDS011;6819;50.886;4.332;2023-08-06T04:40:52;4.50;;;2.50;;
13493;SDS011;6819;50.886;4.332;2023-08-06T04:43:18;7.32;;;2.70;;
13493;SDS011;6819;50.886;4.332;2023-08-06T04:45:48;3.88;;;2.42;;
13493;SDS011;6819;50.886;4.332;2023-08-06T04:48:15;5.88;;;2.92;;
13493;SDS011;6819;50.886;4.332;2023-08-06T04:50:47;7.35;;;2.80;;
13493;SDS011;6819;50.886;4.332;2023-08-06T04:53:13;9.48;;;2.88;;
13493;SDS011;6819;50.886;4.332;2023-08-06T04:55:39;3.90;;;2.88;;
13493;SDS011;6819;50.886;4.332;2023-08-06T04:58:06;9.18;;;2.78;;
13493;SDS011;6819;50.886;4.332;2023-08-06T05:00:32;6.25;;;3.13;;
13493;SDS011;6819;50.886;4.332;2023-08-06T05:03:01;4.20;;;2.72;;
13493;SDS011;6819;50.886;4.332;2023-08-06T05:05:28;5.55;;;3.03;;
13493;SDS011;6819;50.886;4.332;2023-08-06T05:07:54;7.82;;;2.97;;
13493;SDS011;6819;50.886;4.332;2023-08-06T05:10:21;4.25;;;2.67;;
13493;SDS011;6819;50.886;4.332;2023-08-06T05:12:47;7.00;;;2.97;;
13493;SDS011;6819;50.886;4.332;2023-08-06T05:15:13;8.43;;;3.20;;
13493;SDS011;6819;50.886;4.332;2023-08-06T05:17:39;6.45;;;2.75;;
13493;SDS011;6819;50.886;4.332;2023-08-06T05:20:05;8.15;;;3.20;;
13493;SDS011;6819;50.886;4.332;2023-08-06T05:22:31;11.38;;;3.40;;
13493;SDS011;6819;50.886;4.332;2023-08-06T05:24:57;9.45;;;3.15;;
13493;SDS011;6819;50.886;4.332;2023-08-06T05:27:23;9.95;;;3.30;;
13493;SDS011;6819;50.886;4.332;2023-08-06T05:29:49;8.93;;;3.35;;
13493;SDS011;6819;50.886;4.332;2023-08-06T05:32:15;5.88;;;3.00;;
13493;SDS011;6819;50.886;4.332;2023-08-06T05:34:41;8.50;;;3.85;;
13493;SDS011;6819;50.886;4.332;2023-08-06T05:37:07;5.25;;;3.08;;
13493;SDS011;6819;50.886;4.332;2023-08-06T05:39:34;9.70;;;3.33;;
13493;SDS011;6819;50.886;4.332;2023-08-06T05:42:00;6.45;;;2.70;;
13493;SDS011;6819;50.886;4.332;2023-08-06T05:44:26;13.55;;;3.38;;
13493;SDS011;6819;50.886;4.332;2023-08-06T05:46:52;10.45;;;3.70;;
13493;SDS011;6819;50.886;4.332;2023-08-06T05:49:18;5.88;;;2.80;;
13493;SDS011;6819;50.886;4.332;2023-08-06T05:51:44;8.05;;;3.00;;
13493;SDS011;6819;50.886;4.332;2023-08-06T05:54:10;8.82;;;2.60;;
13493;SDS011;6819;50.886;4.332;2023-08-06T05:56:36;6.97;;;2.42;;
13493;SDS011;6819;50.886;4.332;2023-08-06T05:59:02;11.15;;;2.60;;
13493;SDS011;6819;50.886;4.332;2023-08-06T06:01:28;12.13;;;3.15;;
13493;SDS011;6819;50.886;4.332;2023-08-06T06:03:54;13.63;;;3.08;;
13493;SDS011;6819;50.886;4.332;2023-08-06T06:06:20;9.88;;;2.83;;
13493;SDS011;6819;50.886;4.332;2023-08-06T06:08:46;8.10;;;3.28;;
13493;SDS011;6819;50.886;4.332;2023-08-06T06:11:12;10.02;;;3.35;;
13493;SDS011;6819;50.886;4.332;2023-08-06T06:13:38;6.57;;;3.10;;
13493;SDS011;6819;50.886;4.332;2023-08-06T06:16:04;11.63;;;3.58;;
13493;SDS011;6819;50.886;4.332;2023-08-06T06:18:30;9.63;;;3.25;;
13493;SDS011;6819;50.886;4.332;2023-08-06T06:20:56;13.73;;;3.45;;
13493;SDS011;6819;50.886;4.332;2023-08-06T06:23:22;11.68;;;3.60;;
13493;SDS011;6819;50.886;4.332;2023-08-06T06:25:49;11.07;;;3.55;;
13493;SDS011;6819;50.886;4.332;2023-08-06T06:28:18;10.10;;;3.42;;
13493;SDS011;6819;50.886;4.332;2023-08-06T06:30:44;10.75;;;3.92;;
13493;SDS011;6819;50.886;4.332;2023-08-06T06:33:10;11.95;;;3.83;;
13493;SDS011;6819;50.886;4.332;2023-08-06T06:35:36;19.15;;;4.10;;
13493;SDS011;6819;50.886;4.332;2023-08-06T06:38:02;9.57;;;3.33;;
13493;SDS011;6819;50.886;4.332;2023-08-06T06:40:28;12.20;;;3.83;;
13493;SDS011;6819;50.886;4.332;2023-08-06T06:42:54;10.57;;;3.35;;
13493;SDS011;6819;50.886;4.332;2023-08-06T06:45:20;7.25;;;3.17;;
13493;SDS011;6819;50.886;4.332;2023-08-06T06:47:46;11.38;;;3.10;;
13493;SDS011;6819;50.886;4.332;2023-08-06T06:50:12;9.85;;;3.50;;
13493;SDS011;6819;50.886;4.332;2023-08-06T06:52:38;12.88;;;4.05;;
13493;SDS011;6819;50.886;4.332;2023-08-06T06:55:04;9.85;;;3.20;;
13493;SDS011;6819;50.886;4.332;2023-08-06T06:57:31;10.27;;;2.85;;
13493;SDS011;6819;50.886;4.332;2023-08-06T06:59:57;11.52;;;3.13;;
13493;SDS011;6819;50.886;4.332;2023-08-06T07:02:22;9.70;;;2.85;;
13493;SDS011;6819;50.886;4.332;2023-08-06T07:04:49;9.13;;;2.70;;
13493;SDS011;6819;50.886;4.332;2023-08-06T07:07:16;6.07;;;2.75;;
13493;SDS011;6819;50.886;4.332;2023-08-06T07:09:42;7.80;;;3.08;;
13493;SDS011;6819;50.886;4.332;2023-08-06T07:12:08;13.32;;;2.42;;
13493;SDS011;6819;50.886;4.332;2023-08-06T07:14:34;7.32;;;2.28;;
13493;SDS011;6819;50.886;4.332;2023-08-06T07:17:00;8.40;;;2.65;;
13493;SDS011;6819;50.886;4.332;2023-08-06T07:19:26;6.50;;;2.03;;
13493;SDS011;6819;50.886;4.332;2023-08-06T07:21:52;8.55;;;1.73;;
13493;SDS011;6819;50.886;4.332;2023-08-06T07:24:18;11.40;;;1.58;;
13493;SDS011;6819;50.886;4.332;2023-08-06T07:26:44;7.32;;;1.73;;
13493;SDS011;6819;50.886;4.332;2023-08-06T07:29:10;8.82;;;1.65;;
13493;SDS011;6819;50.886;4.332;2023-08-06T07:31:36;6.72;;;1.50;;
13493;SDS011;6819;50.886;4.332;2023-08-06T07:34:02;7.18;;;1.50;;
13493;SDS011;6819;50.886;4.332;2023-08-06T07:36:28;6.20;;;1.58;;
13493;SDS011;6819;50.886;4.332;2023-08-06T07:38:54;17.42;;;1.95;;
13493;SDS011;6819;50.886;4.332;2023-08-06T07:41:24;9.38;;;1.52;;
13493;SDS011;6819;50.886;4.332;2023-08-06T07:43:50;6.32;;;1.60;;
13493;SDS011;6819;50.886;4.332;2023-08-06T07:46:16;5.55;;;1.65;;
13493;SDS011;6819;50.886;4.332;2023-08-06T07:48:42;10.43;;;1.70;;
13493;SDS011;6819;50.886;4.332;2023-08-06T07:51:08;10.85;;;1.75;;
13493;SDS011;6819;50.886;4.332;2023-08-06T07:53:35;8.20;;;2.15;;
13493;SDS011;6819;50.886;4.332;2023-08-06T07:56:01;11.07;;;1.75;;
13493;SDS011;6819;50.886;4.332;2023-08-06T07:58:27;12.88;;;2.47;;
13493;SDS011;6819;50.886;4.332;2023-08-06T08:00:54;7.20;;;1.42;;
13493;SDS011;6819;50.886;4.332;2023-08-06T08:03:20;10.75;;;1.50;;
13493;SDS011;6819;50.886;4.332;2023-08-06T08:05:46;9.52;;;2.28;;
13493;SDS011;6819;50.886;4.332;2023-08-06T08:08:12;11.70;;;2.20;;
13493;SDS011;6819;50.886;4.332;2023-08-06T08:10:39;7.75;;;1.90;;
13493;SDS011;6819;50.886;4.332;2023-08-06T08:13:05;8.57;;;1.60;;
13493;SDS011;6819;50.886;4.332;2023-08-06T08:15:31;6.65;;;1.85;;
13493;SDS011;6819;50.886;4.332;2023-08-06T08:17:58;11.10;;;2.53;;
13493;SDS011;6819;50.886;4.332;2023-08-06T08:20:24;4.80;;;1.50;;
13493;SDS011;6819;50.886;4.332;2023-08-06T08:22:52;6.75;;;1.95;;
13493;SDS011;6819;50.886;4.332;2023-08-06T08:25:18;7.85;;;1.60;;
13493;SDS011;6819;50.886;4.332;2023-08-06T08:27:44;5.25;;;1.77;;
13493;SDS011;6819;50.886;4.332;2023-08-06T08:30:10;6.32;;;1.60;;
13493;SDS011;6819;50.886;4.332;2023-08-06T08:32:36;5.22;;;1.60;;
13493;SDS011;6819;50.886;4.332;2023-08-06T08:35:02;11.00;;;1.50;;
13493;SDS011;6819;50.886;4.332;2023-08-06T08:37:28;12.80;;;1.95;;
13493;SDS011;6819;50.886;4.332;2023-08-06T08:39:54;7.78;;;1.77;;
13493;SDS011;6819;50.886;4.332;2023-08-06T08:42:21;8.65;;;1.60;;
13493;SDS011;6819;50.886;4.332;2023-08-06T08:44:47;5.30;;;1.92;;
13493;SDS011;6819;50.886;4.332;2023-08-06T08:47:13;5.60;;;1.90;;
13493;SDS011;6819;50.886;4.332;2023-08-06T08:49:41;5.80;;;1.80;;
13493;SDS011;6819;50.886;4.332;2023-08-06T08:52:08;6.72;;;1.70;;
13493;SDS011;6819;50.886;4.332;2023-08-06T08:54:38;6.40;;;1.40;;
13493;SDS011;6819;50.886;4.332;2023-08-06T08:57:04;12.98;;;1.98;;
13493;SDS011;6819;50.886;4.332;2023-08-06T08:59:32;7.32;;;1.65;;
13493;SDS011;6819;50.886;4.332;2023-08-06T09:01:58;9.80;;;1.60;;
13493;SDS011;6819;50.886;4.332;2023-08-06T09:04:26;10.23;;;2.95;;
13493;SDS011;6819;50.886;4.332;2023-08-06T09:06:53;11.70;;;1.85;;
13493;SDS011;6819;50.886;4.332;2023-08-06T09:09:22;7.07;;;1.55;;
13493;SDS011;6819;50.886;4.332;2023-08-06T09:11:51;12.98;;;1.80;;
13493;SDS011;6819;50.886;4.332;2023-08-06T09:14:17;13.13;;;1.80;;
13493;SDS011;6819;50.886;4.332;2023-08-06T09:16:43;7.38;;;1.70;;
13493;SDS011;6819;50.886;4.332;2023-08-06T09:19:13;9.25;;;1.73;;
13493;SDS011;6819;50.886;4.332;2023-08-06T09:21:42;11.73;;;1.77;;
13493;SDS011;6819;50.886;4.332;2023-08-06T09:24:12;5.25;;;1.80;;
13493;SDS011;6819;50.886;4.332;2023-08-06T09:26:38;7.25;;;1.67;;
13493;SDS011;6819;50.886;4.332;2023-08-06T09:29:05;10.32;;;2.42;;
13493;SDS011;6819;50.886;4.332;2023-08-06T09:31:45;7.88;;;2.00;;
13493;SDS011;6819;50.886;4.332;2023-08-06T09:34:14;9.20;;;2.17;;
13493;SDS011;6819;50.886;4.332;2023-08-06T09:36:47;12.38;;;2.28;;
13493;SDS011;6819;50.886;4.332;2023-08-06T09:39:14;8.80;;;2.28;;
13493;SDS011;6819;50.886;4.332;2023-08-06T09:41:40;9.35;;;2.17;;
13493;SDS011;6819;50.886;4.332;2023-08-06T09:44:28;8.20;;;2.03;;
13493;SDS011;6819;50.886;4.332;2023-08-06T09:46:53;8.60;;;2.58;;
13493;SDS011;6819;50.886;4.332;2023-08-06T09:49:20;9.90;;;2.33;;
13493;SDS011;6819;50.886;4.332;2023-08-06T09:51:47;4.45;;;1.77;;
13493;SDS011;6819;50.886;4.332;2023-08-06T09:54:17;6.38;;;1.85;;
13493;SDS011;6819;50.886;4.332;2023-08-06T09:56:44;8.30;;;1.92;;
13493;SDS011;6819;50.886;4.332;2023-08-06T09:59:10;6.97;;;1.63;;
13493;SDS011;6819;50.886;4.332;2023-08-06T10:01:36;10.27;;;2.15;;
13493;SDS011;6819;50.886;4.332;2023-08-06T10:04:02;10.32;;;1.80;;
13493;SDS011;6819;50.886;4.332;2023-08-06T10:06:29;8.23;;;1.88;;
13493;SDS011;6819;50.886;4.332;2023-08-06T10:08:55;6.80;;;1.80;;
13493;SDS011;6819;50.886;4.332;2023-08-06T10:11:22;9.88;;;1.90;;
13493;SDS011;6819;50.886;4.332;2023-08-06T10:13:49;9.90;;;2.28;;
13493;SDS011;6819;50.886;4.332;2023-08-06T10:16:16;11.05;;;1.83;;
13493;SDS011;6819;50.886;4.332;2023-08-06T10:18:42;5.45;;;1.90;;
13493;SDS011;6819;50.886;4.332;2023-08-06T10:21:08;8.60;;;1.85;;
13493;SDS011;6819;50.886;4.332;2023-08-06T10:23:35;7.43;;;1.73;;
13493;SDS011;6819;50.886;4.332;2023-08-06T10:26:03;8.18;;;1.67;;
13493;SDS011;6819;50.886;4.332;2023-08-06T10:28:38;8.43;;;1.65;;
13493;SDS011;6819;50.886;4.332;2023-08-06T10:31:05;6.78;;;1.92;;
13493;SDS011;6819;50.886;4.332;2023-08-06T10:33:41;3.65;;;1.23;;
13493;SDS011;6819;50.886;4.332;2023-08-06T10:36:08;7.38;;;1.50;;
13493;SDS011;6819;50.886;4.332;2023-08-06T10:38:34;8.65;;;1.75;;
13493;SDS011;6819;50.886;4.332;2023-08-06T10:41:03;6.88;;;1.67;;
13493;SDS011;6819;50.886;4.332;2023-08-06T10:45:57;8.05;;;1.80;;
13493;SDS011;6819;50.886;4.332;2023-08-06T10:50:56;9.65;;;2.22;;
13493;SDS011;6819;50.886;4.332;2023-08-06T10:53:22;8.88;;;1.75;;
13493;SDS011;6819;50.886;4.332;2023-08-06T10:55:48;8.75;;;1.90;;
13493;SDS011;6819;50.886;4.332;2023-08-06T10:58:15;10.48;;;2.00;;
13493;SDS011;6819;50.886;4.332;2023-08-06T11:00:41;6.95;;;1.98;;
13493;SDS011;6819;50.886;4.332;2023-08-06T11:03:08;10.15;;;2.25;;
13493;SDS011;6819;50.886;4.332;2023-08-06T11:05:35;6.40;;;2.10;;
13493;SDS011;6819;50.886;4.332;2023-08-06T11:08:01;7.07;;;2.05;;
13493;SDS011;6819;50.886;4.332;2023-08-06T11:10:27;6.68;;;2.10;;
13493;SDS011;6819;50.886;4.332;2023-08-06T11:12:53;8.32;;;2.22;;
13493;SDS011;6819;50.886;4.332;2023-08-06T11:15:20;10.85;;;2.03;;
13493;SDS011;6819;50.886;4.332;2023-08-06T11:17:46;6.97;;;1.90;;
13493;SDS011;6819;50.886;4.332;2023-08-06T11:20:13;11.27;;;2.35;;
13493;SDS011;6819;50.886;4.332;2023-08-06T11:22:39;7.32;;;2.30;;
13493;SDS011;6819;50.886;4.332;2023-08-06T11:25:06;9.30;;;1.90;;
13493;SDS011;6819;50.886;4.332;2023-08-06T11:27:32;6.65;;;1.70;;
13493;SDS011;6819;50.886;4.332;2023-08-06T11:29:58;5.43;;;1.67;;
13493;SDS011;6819;50.886;4.332;2023-08-06T11:32:25;5.05;;;1.75;;
13493;SDS011;6819;50.886;4.332;2023-08-06T11:34:52;5.28;;;1.42;;
13493;SDS011;6819;50.886;4.332;2023-08-06T11:37:23;7.65;;;1.60;;
13493;SDS011;6819;50.886;4.332;2023-08-06T11:39:50;6.38;;;1.83;;
13493;SDS011;6819;50.886;4.332;2023-08-06T11:42:16;8.70;;;2.47;;
13493;SDS011;6819;50.886;4.332;2023-08-06T11:44:42;5.90;;;1.67;;
13493;SDS011;6819;50.886;4.332;2023-08-06T11:47:15;7.45;;;1.90;;
13493;SDS011;6819;50.886;4.332;2023-08-06T11:49:42;8.52;;;1.60;;
13493;SDS011;6819;50.886;4.332;2023-08-06T11:52:22;8.63;;;1.75;;
13493;SDS011;6819;50.886;4.332;2023-08-06T11:55:08;8.32;;;1.58;;
13493;SDS011;6819;50.886;4.332;2023-08-06T11:57:39;8.32;;;1.60;;
13493;SDS011;6819;50.886;4.332;2023-08-06T12:00:09;7.32;;;1.60;;
13493;SDS011;6819;50.886;4.332;2023-08-06T12:02:35;8.52;;;1.85;;
13493;SDS011;6819;50.886;4.332;2023-08-06T12:07:29;9.00;;;1.80;;
13493;SDS011;6819;50.886;4.332;2023-08-06T12:09:56;6.07;;;1.70;;
13493;SDS011;6819;50.886;4.332;2023-08-06T12:12:22;5.90;;;1.85;;
13493;SDS011;6819;50.886;4.332;2023-08-06T12:14:48;9.10;;;2.25;;
13493;SDS011;6819;50.886;4.332;2023-08-06T12:17:14;11.02;;;2.28;;
13493;SDS011;6819;50.886;4.332;2023-08-06T12:19:40;8.32;;;2.05;;
13493;SDS011;6819;50.886;4.332;2023-08-06T12:22:06;8.77;;;2.42;;
13493;SDS011;6819;50.886;4.332;2023-08-06T12:24:33;10.38;;;2.22;;
13493;SDS011;6819;50.886;4.332;2023-08-06T12:26:59;6.80;;;2.13;;
13493;SDS011;6819;50.886;4.332;2023-08-06T12:29:27;5.47;;;2.00;;
13493;SDS011;6819;50.886;4.332;2023-08-06T12:31:53;8.95;;;1.70;;
13493;SDS011;6819;50.886;4.332;2023-08-06T12:34:19;6.85;;;1.85;;
13493;SDS011;6819;50.886;4.332;2023-08-06T12:36:45;25.55;;;2.45;;
13493;SDS011;6819;50.886;4.332;2023-08-06T12:39:11;7.95;;;1.85;;
13493;SDS011;6819;50.886;4.332;2023-08-06T12:41:38;9.60;;;2.03;;
13493;SDS011;6819;50.886;4.332;2023-08-06T12:44:04;8.88;;;1.80;;
13493;SDS011;6819;50.886;4.332;2023-08-06T12:46:30;12.73;;;1.95;;
13493;SDS011;6819;50.886;4.332;2023-08-06T12:48:56;8.65;;;2.25;;
13493;SDS011;6819;50.886;4.332;2023-08-06T12:51:23;8.18;;;1.52;;
13493;SDS011;6819;50.886;4.332;2023-08-06T12:53:49;10.82;;;2.25;;
13493;SDS011;6819;50.886;4.332;2023-08-06T12:56:15;5.85;;;1.63;;
13493;SDS011;6819;50.886;4.332;2023-08-06T12:58:41;6.55;;;1.58;;
13493;SDS011;6819;50.886;4.332;2023-08-06T13:01:07;9.18;;;1.85;;
13493;SDS011;6819;50.886;4.332;2023-08-06T13:03:33;5.93;;;1.80;;
13493;SDS011;6819;50.886;4.332;2023-08-06T13:05:59;9.40;;;2.15;;
13493;SDS011;6819;50.886;4.332;2023-08-06T13:08:26;6.80;;;1.70;;
13493;SDS011;6819;50.886;4.332;2023-08-06T13:10:52;4.10;;;1.67;;
13493;SDS011;6819;50.886;4.332;2023-08-06T13:13:18;12.50;;;2.17;;
13493;SDS011;6819;50.886;4.332;2023-08-06T13:15:44;7.90;;;1.98;;
13493;SDS011;6819;50.886;4.332;2023-08-06T13:18:10;12.18;;;2.10;;
13493;SDS011;6819;50.886;4.332;2023-08-06T13:20:37;6.85;;;1.75;;
13493;SDS011;6819;50.886;4.332;2023-08-06T13:23:05;5.63;;;2.05;;
13493;SDS011;6819;50.886;4.332;2023-08-06T13:25:31;5.85;;;1.42;;
13493;SDS011;6819;50.886;4.332;2023-08-06T13:28:01;9.15;;;1.95;;
13493;SDS011;6819;50.886;4.332;2023-08-06T13:30:28;5.60;;;1.48;;
13493;SDS011;6819;50.886;4.332;2023-08-06T13:32:54;7.75;;;1.67;;
13493;SDS011;6819;50.886;4.332;2023-08-06T13:35:21;6.03;;;1.52;;
13493;SDS011;6819;50.886;4.332;2023-08-06T13:37:47;7.43;;;1.88;;
13493;SDS011;6819;50.886;4.332;2023-08-06T13:40:13;6.53;;;1.55;;
13493;SDS011;6819;50.886;4.332;2023-08-06T13:42:40;8.35;;;2.05;;
13493;SDS011;6819;50.886;4.332;2023-08-06T13:45:06;7.95;;;1.73;;
13493;SDS011;6819;50.886;4.332;2023-08-06T13:47:32;14.32;;;2.20;;
13493;SDS011;6819;50.886;4.332;2023-08-06T13:49:58;7.40;;;1.83;;
13493;SDS011;6819;50.886;4.332;2023-08-06T13:52:27;7.10;;;1.40;;
13493;SDS011;6819;50.886;4.332;2023-08-06T13:54:53;5.75;;;1.52;;
13493;SDS011;6819;50.886;4.332;2023-08-06T13:57:19;7.00;;;1.40;;
13493;SDS011;6819;50.886;4.332;2023-08-06T13:59:45;5.35;;;1.60;;
13493;SDS011;6819;50.886;4.332;2023-08-06T14:02:11;9.55;;;1.98;;
13493;SDS011;6819;50.886;4.332;2023-08-06T14:04:37;4.93;;;1.33;;
13493;SDS011;6819;50.886;4.332;2023-08-06T14:07:04;7.57;;;1.40;;
13493;SDS011;6819;50.886;4.332;2023-08-06T14:09:30;8.35;;;1.92;;
13493;SDS011;6819;50.886;4.332;2023-08-06T14:11:56;6.47;;;1.50;;
13493;SDS011;6819;50.886;4.332;2023-08-06T14:14:22;6.45;;;2.10;;
13493;SDS011;6819;50.886;4.332;2023-08-06T14:16:53;4.68;;;1.48;;
13493;SDS011;6819;50.886;4.332;2023-08-06T14:19:20;8.82;;;1.65;;
13493;SDS011;6819;50.886;4.332;2023-08-06T14:21:46;8.07;;;1.95;;
13493;SDS011;6819;50.886;4.332;2023-08-06T14:24:12;7.13;;;1.88;;
13493;SDS011;6819;50.886;4.332;2023-08-06T14:26:38;7.70;;;1.80;;
13493;SDS011;6819;50.886;4.332;2023-08-06T14:29:04;5.50;;;1.60;;
13493;SDS011;6819;50.886;4.332;2023-08-06T14:31:30;9.00;;;2.58;;
13493;SDS011;6819;50.886;4.332;2023-08-06T14:33:56;10.60;;;1.83;;
13493;SDS011;6819;50.886;4.332;2023-08-06T14:36:22;8.95;;;2.10;;
13493;SDS011;6819;50.886;4.332;2023-08-06T14:38:48;6.80;;;1.55;;
13493;SDS011;6819;50.886;4.332;2023-08-06T14:41:14;4.63;;;1.80;;
13493;SDS011;6819;50.886;4.332;2023-08-06T14:43:40;8.18;;;1.80;;
13493;SDS011;6819;50.886;4.332;2023-08-06T14:46:06;4.53;;;1.42;;
13493;SDS011;6819;50.886;4.332;2023-08-06T14:48:32;5.88;;;2.33;;
13493;SDS011;6819;50.886;4.332;2023-08-06T14:50:58;17.23;;;1.88;;
13493;SDS011;6819;50.886;4.332;2023-08-06T14:53:24;10.98;;;1.98;;
13493;SDS011;6819;50.886;4.332;2023-08-06T14:55:50;10.85;;;1.73;;
13493;SDS011;6819;50.886;4.332;2023-08-06T14:58:16;7.57;;;1.70;;
13493;SDS011;6819;50.886;4.332;2023-08-06T15:00:42;9.80;;;2.25;;
13493;SDS011;6819;50.886;4.332;2023-08-06T15:03:08;11.20;;;2.60;;
13493;SDS011;6819;50.886;4.332;2023-08-06T15:05:34;5.38;;;1.40;;
13493;SDS011;6819;50.886;4.332;2023-08-06T15:08:00;9.43;;;2.28;;